createdAt,value
2018-07-28T00:02:07.236Z,9.27
2018-07-28T00:04:40.451Z,8.00
2018-07-28T00:07:07.803Z,11.57
2018-07-28T00:09:34.837Z,10.70
2018-07-28T00:12:02.003Z,10.50
2018-07-28T00:14:30.968Z,8.40
2018-07-28T00:16:58.754Z,12.68
2018-07-28T00:19:25.850Z,10.47
2018-07-28T00:21:52.928Z,8.63
2018-07-28T00:24:20.359Z,11.30
2018-07-28T00:26:49.176Z,11.63
2018-07-28T00:29:19.820Z,8.50
2018-07-28T00:31:49.861Z,10.03
2018-07-28T00:34:17.022Z,7.33
2018-07-28T00:36:44.126Z,12.03
2018-07-28T00:39:13.013Z,9.13
2018-07-28T00:41:43.155Z,11.90
2018-07-28T00:44:11.221Z,8.23
2018-07-28T00:46:39.664Z,7.70
2018-07-28T00:49:08.674Z,8.87
2018-07-28T00:51:37.698Z,9.33
2018-07-28T00:54:04.776Z,9.17
2018-07-28T00:56:32.135Z,9.70
2018-07-28T00:58:59.341Z,8.55
2018-07-28T01:01:27.270Z,9.20
2018-07-28T01:03:55.260Z,9.78
2018-07-28T01:06:22.408Z,11.70
2018-07-28T01:08:49.694Z,8.87
2018-07-28T01:11:18.691Z,10.83
2018-07-28T01:13:46.284Z,8.60
2018-07-28T01:16:15.299Z,9.80
2018-07-28T01:18:43.416Z,8.33
2018-07-28T01:21:11.620Z,11.83
2018-07-28T01:23:40.805Z,12.53
2018-07-28T01:26:09.913Z,10.27
2018-07-28T01:28:42.711Z,12.63
2018-07-28T01:31:09.950Z,11.57
2018-07-28T01:33:37.964Z,9.60
2018-07-28T01:36:05.061Z,12.40
2018-07-28T01:38:32.100Z,12.37
2018-07-28T01:40:59.276Z,10.10
2018-07-28T01:43:28.252Z,10.80
2018-07-28T01:45:55.294Z,9.50
2018-07-28T01:48:23.209Z,13.30
2018-07-28T01:50:51.313Z,11.77
2018-07-28T01:53:19.718Z,10.97
2018-07-28T01:55:48.943Z,10.70
2018-07-28T01:58:20.644Z,9.93
2018-07-28T02:00:47.901Z,9.47
2018-07-28T02:03:15.231Z,10.10
2018-07-28T02:05:42.348Z,13.70
2018-07-28T02:08:11.255Z,11.43
2018-07-28T02:10:40.215Z,9.68
2018-07-28T02:13:08.295Z,11.00
2018-07-28T02:15:36.316Z,10.40
2018-07-28T02:18:04.312Z,10.63
2018-07-28T02:20:31.400Z,10.30
2018-07-28T02:22:59.267Z,9.83
2018-07-28T02:25:26.524Z,11.70
2018-07-28T02:27:53.952Z,9.83
2018-07-28T02:30:22.042Z,9.80
2018-07-28T02:32:49.479Z,10.10
2018-07-28T02:35:16.641Z,9.98
2018-07-28T02:37:43.710Z,14.20
2018-07-28T02:40:10.774Z,10.87
2018-07-28T02:42:38.889Z,11.47
2018-07-28T02:45:05.960Z,10.63
2018-07-28T02:47:33.018Z,13.43
2018-07-28T02:50:00.798Z,11.57
2018-07-28T02:52:27.926Z,14.70
2018-07-28T02:54:56.848Z,13.53
2018-07-28T02:57:26.962Z,10.60
2018-07-28T02:59:54.844Z,13.80
2018-07-28T03:02:21.987Z,10.63
2018-07-28T03:04:50.104Z,14.50
2018-07-28T03:07:17.191Z,12.33
2018-07-28T03:09:44.252Z,8.73
2018-07-28T03:12:11.276Z,11.37
2018-07-28T03:14:38.458Z,11.97
2018-07-28T03:17:05.621Z,9.73
2018-07-28T03:19:32.872Z,9.80
2018-07-28T03:22:03.933Z,11.60
2018-07-28T03:24:31.039Z,10.77
2018-07-28T03:26:58.153Z,9.50
2018-07-28T03:29:25.245Z,9.87
2018-07-28T03:31:52.321Z,9.60
2018-07-28T03:34:20.186Z,9.73
2018-07-28T03:36:47.296Z,10.23
2018-07-28T03:39:18.166Z,10.73
2018-07-28T03:41:45.752Z,10.63
2018-07-28T03:44:12.869Z,9.87
2018-07-28T03:46:43.742Z,10.00
2018-07-28T03:49:10.878Z,13.93
2018-07-28T03:51:40.846Z,9.77
2018-07-28T03:54:08.084Z,11.20
2018-07-28T03:56:35.243Z,12.70
2018-07-28T03:59:02.329Z,11.03
2018-07-28T04:01:29.383Z,11.03
2018-07-28T04:03:57.228Z,12.60
2018-07-28T04:06:24.360Z,11.53
2018-07-28T04:08:51.417Z,10.20
2018-07-28T04:11:18.542Z,10.65
2018-07-28T04:13:48.615Z,10.23
2018-07-28T04:16:19.564Z,9.40
2018-07-28T04:18:52.762Z,9.48
2018-07-28T04:21:20.810Z,10.38
2018-07-28T04:23:47.899Z,8.77
2018-07-28T04:26:15.113Z,11.50
2018-07-28T04:28:43.785Z,9.83
2018-07-28T04:31:17.241Z,10.47
2018-07-28T04:33:44.360Z,10.83
2018-07-28T04:36:13.274Z,11.40
2018-07-28T04:38:41.274Z,8.50
2018-07-28T04:41:08.348Z,10.50
2018-07-28T04:43:35.419Z,12.10
2018-07-28T04:46:03.527Z,8.80
2018-07-28T04:48:32.335Z,8.90
2018-07-28T04:50:59.418Z,11.40
2018-07-28T04:53:26.524Z,8.00
2018-07-28T04:55:54.577Z,12.90
2018-07-28T04:58:21.652Z,9.30
2018-07-28T05:00:52.144Z,12.00
2018-07-28T05:03:19.280Z,11.25
2018-07-28T05:05:46.390Z,8.03
2018-07-28T05:08:13.442Z,11.10
2018-07-28T05:10:40.753Z,11.43
2018-07-28T05:13:08.932Z,10.82
2018-07-28T05:15:36.826Z,19.97
2018-07-28T05:18:08.548Z,11.33
2018-07-28T05:20:35.646Z,9.10
2018-07-28T05:23:02.790Z,9.47
2018-07-28T05:25:31.762Z,8.20
2018-07-28T05:27:59.857Z,10.30
2018-07-28T05:30:27.869Z,12.63
2018-07-28T05:32:55.044Z,8.73
2018-07-28T05:35:22.210Z,10.27
2018-07-28T05:37:49.952Z,10.90
2018-07-28T05:40:17.152Z,8.80
2018-07-28T05:42:48.349Z,6.87
2018-07-28T05:45:17.316Z,9.40
2018-07-28T05:47:45.370Z,8.33
2018-07-28T05:50:12.518Z,10.77
2018-07-28T05:52:44.202Z,9.70
2018-07-28T05:55:17.417Z,10.90
2018-07-28T05:57:45.461Z,8.63
2018-07-28T06:00:15.568Z,12.70
2018-07-28T06:02:42.670Z,6.97
2018-07-28T06:05:09.739Z,17.50
2018-07-28T06:07:36.900Z,18.63
2018-07-28T06:10:04.140Z,16.60
2018-07-28T06:12:31.451Z,17.05
2018-07-28T06:14:59.496Z,12.10
2018-07-28T06:17:29.589Z,8.70
2018-07-28T06:19:57.273Z,10.30
2018-07-28T06:22:24.332Z,11.70
2018-07-28T06:24:51.400Z,13.43
2018-07-28T06:27:18.544Z,18.93
2018-07-28T06:29:45.637Z,17.03
2018-07-28T06:32:12.745Z,8.85
2018-07-28T06:34:41.314Z,12.00
2018-07-28T06:37:09.491Z,12.75
2018-07-28T06:39:36.725Z,9.13
2018-07-28T06:42:06.793Z,17.43
2018-07-28T06:44:33.924Z,9.63
2018-07-28T06:47:01.155Z,14.93
2018-07-28T06:49:28.276Z,10.10
2018-07-28T06:51:55.982Z,9.33
2018-07-28T06:54:23.964Z,14.40
2018-07-28T06:56:52.960Z,17.67
2018-07-28T06:59:20.094Z,13.80
2018-07-28T07:01:53.060Z,13.63
2018-07-28T07:04:20.872Z,12.93
2018-07-28T07:06:53.975Z,16.57
2018-07-28T07:09:21.972Z,10.20
2018-07-28T07:11:49.020Z,11.60
2018-07-28T07:14:16.123Z,8.37
2018-07-28T07:16:47.085Z,8.87
2018-07-28T07:19:14.277Z,16.55
2018-07-28T07:21:42.989Z,10.37
2018-07-28T07:24:10.228Z,8.70
2018-07-28T07:26:38.417Z,9.43
2018-07-28T07:29:05.661Z,9.70
2018-07-28T07:31:34.817Z,13.47
2018-07-28T07:34:03.947Z,11.37
2018-07-28T07:36:31.042Z,10.35
2018-07-28T07:38:58.076Z,12.10
2018-07-28T07:41:25.186Z,8.60
2018-07-28T07:43:52.487Z,10.13
2018-07-28T07:46:19.616Z,9.63
2018-07-28T07:48:46.718Z,8.20
2018-07-28T07:51:13.781Z,13.23
2018-07-28T07:53:42.581Z,16.00
2018-07-28T07:56:09.725Z,10.53
2018-07-28T07:58:38.446Z,10.73
2018-07-28T08:01:07.608Z,13.27
2018-07-28T08:03:34.777Z,14.07
2018-07-28T08:06:01.948Z,13.00
2018-07-28T08:08:29.007Z,16.27
2018-07-28T08:10:56.088Z,13.43
2018-07-28T08:13:25.046Z,7.87
2018-07-28T08:15:52.936Z,11.07
2018-07-28T08:18:23.123Z,16.40
2018-07-28T08:20:51.132Z,10.85
2018-07-28T08:23:18.961Z,11.33
2018-07-28T08:25:46.022Z,7.63
2018-07-28T08:28:13.341Z,9.30
2018-07-28T08:30:41.941Z,15.03
2018-07-28T08:33:08.984Z,14.43
2018-07-28T08:35:36.047Z,7.33
2018-07-28T08:38:04.555Z,13.73
2018-07-28T08:40:32.430Z,12.63
2018-07-28T08:42:59.618Z,12.60
2018-07-28T08:45:26.750Z,13.70
2018-07-28T08:47:53.895Z,10.35
2018-07-28T08:50:21.134Z,15.90
2018-07-28T08:52:48.255Z,10.40
2018-07-28T08:55:15.395Z,6.43
2018-07-28T08:57:42.599Z,12.50
2018-07-28T09:00:10.617Z,8.10
2018-07-28T09:02:38.452Z,16.77
2018-07-28T09:05:07.487Z,7.33
2018-07-28T09:07:34.644Z,8.37
2018-07-28T09:10:01.773Z,9.10
2018-07-28T09:12:29.021Z,9.05
2018-07-28T09:14:57.004Z,7.78
2018-07-28T09:17:25.062Z,5.90
2018-07-28T09:19:52.167Z,6.63
2018-07-28T09:22:21.112Z,8.37
2018-07-28T09:24:49.977Z,8.10
2018-07-28T09:27:17.035Z,6.27
2018-07-28T09:29:44.100Z,7.37
2018-07-28T09:32:11.245Z,7.37
2018-07-28T09:34:39.024Z,6.70
2018-07-28T09:37:07.060Z,7.40
2018-07-28T09:39:34.221Z,3.70
2018-07-28T09:42:02.024Z,4.17
2018-07-28T09:44:29.150Z,5.20
2018-07-28T09:46:56.263Z,4.57
2018-07-28T09:49:23.401Z,3.70
2018-07-28T09:51:51.291Z,5.90
2018-07-28T09:54:18.361Z,3.80
2018-07-28T09:56:45.496Z,4.53
2018-07-28T09:59:12.682Z,4.80
2018-07-28T10:01:39.850Z,7.15
2018-07-28T10:04:08.017Z,4.83
2018-07-28T10:06:35.076Z,9.80
2018-07-28T10:09:02.144Z,18.73
2018-07-28T10:11:29.219Z,7.20
2018-07-28T10:13:56.362Z,4.43
2018-07-28T10:16:23.666Z,4.10
2018-07-28T10:18:50.655Z,3.90
2018-07-28T10:21:17.898Z,7.37
2018-07-28T10:23:47.034Z,7.03
2018-07-28T10:26:14.197Z,4.20
2018-07-28T10:28:41.290Z,8.77
2018-07-28T10:31:12.138Z,3.50
2018-07-28T10:33:40.296Z,4.97
2018-07-28T10:36:07.561Z,4.13
2018-07-28T10:38:34.629Z,5.00
2018-07-28T10:41:01.775Z,5.00
2018-07-28T10:43:28.844Z,7.60
2018-07-28T10:45:55.962Z,4.80
2018-07-28T10:48:25.065Z,5.10
2018-07-28T10:50:53.424Z,9.13
2018-07-28T10:53:22.080Z,3.77
2018-07-28T10:55:49.211Z,5.97
2018-07-28T10:58:16.298Z,5.97
2018-07-28T11:00:44.380Z,4.13
2018-07-28T11:03:11.447Z,4.65
2018-07-28T11:05:38.547Z,4.40
2018-07-28T11:08:06.671Z,3.60
2018-07-28T11:10:34.535Z,4.57
2018-07-28T11:13:02.516Z,4.80
2018-07-28T11:15:29.601Z,3.83
2018-07-28T11:17:56.717Z,4.20
2018-07-28T11:20:24.871Z,3.60
2018-07-28T11:22:52.542Z,4.87
2018-07-28T11:25:19.696Z,5.30
2018-07-28T11:27:46.885Z,4.72
2018-07-28T11:30:13.966Z,8.20
2018-07-28T11:32:52.748Z,4.30
2018-07-28T11:35:31.517Z,5.13
2018-07-28T11:38:20.620Z,4.90
2018-07-28T11:40:59.432Z,14.10
2018-07-28T11:43:38.875Z,4.60
2018-07-28T11:46:05.967Z,4.90
2018-07-28T11:48:33.143Z,6.62
2018-07-28T11:51:00.210Z,4.80
2018-07-28T11:53:27.277Z,5.90
2018-07-28T11:55:54.369Z,7.40
2018-07-28T11:58:22.114Z,6.70
2018-07-28T12:00:50.147Z,6.63
2018-07-28T12:03:17.229Z,4.40
2018-07-28T12:05:46.321Z,4.00
2018-07-28T12:08:13.351Z,4.70
2018-07-28T12:10:40.486Z,5.03
2018-07-28T12:13:07.588Z,4.47
2018-07-28T12:15:34.862Z,4.77
2018-07-28T12:18:05.688Z,4.60
2018-07-28T12:20:32.751Z,4.80
2018-07-28T12:23:00.856Z,6.17
2018-07-28T12:25:28.025Z,6.37
2018-07-28T12:27:55.108Z,4.13
2018-07-28T12:30:22.158Z,8.70
2018-07-28T12:32:49.284Z,6.23
2018-07-28T12:35:17.139Z,4.70
2018-07-28T12:37:44.380Z,5.00
2018-07-28T12:40:11.485Z,4.30
2018-07-28T12:42:38.626Z,4.23
2018-07-28T12:45:05.879Z,5.23
2018-07-28T12:47:33.040Z,4.90
2018-07-28T12:50:00.224Z,5.43
2018-07-28T12:52:27.303Z,7.43
2018-07-28T12:54:57.822Z,4.92
2018-07-28T12:57:25.407Z,4.80
2018-07-28T12:59:54.235Z,4.57
2018-07-28T13:02:21.326Z,6.97
2018-07-28T13:04:48.500Z,4.80
2018-07-28T13:07:15.544Z,5.20
2018-07-28T13:09:42.630Z,8.73
2018-07-28T13:12:09.700Z,9.30
2018-07-28T13:14:38.621Z,5.50
2018-07-28T13:17:05.718Z,6.53
2018-07-28T13:19:32.788Z,6.70
2018-07-28T13:21:59.973Z,7.50
2018-07-28T13:24:27.597Z,7.47
2018-07-28T13:26:54.758Z,6.17
2018-07-28T13:29:23.674Z,7.43
2018-07-28T13:31:50.786Z,9.17
2018-07-28T13:34:17.873Z,6.83
2018-07-28T13:36:45.583Z,11.90
2018-07-28T13:39:12.764Z,13.80
2018-07-28T13:41:48.206Z,9.47
2018-07-28T13:44:15.254Z,8.80
2018-07-28T13:46:45.569Z,11.60
2018-07-28T13:49:12.666Z,7.07
2018-07-28T13:51:39.776Z,11.27
2018-07-28T13:54:06.928Z,7.90
2018-07-28T13:56:34.059Z,7.87
2018-07-28T13:59:01.715Z,9.37
2018-07-28T14:01:37.607Z,7.50
2018-07-28T14:04:05.678Z,7.60
2018-07-28T14:06:32.804Z,12.13
2018-07-28T14:09:00.731Z,6.77
2018-07-28T14:11:27.828Z,8.70
2018-07-28T14:13:54.917Z,6.33
2018-07-28T14:16:21.943Z,8.53
2018-07-28T14:18:49.036Z,8.70
2018-07-28T14:21:20.789Z,7.40
2018-07-28T14:23:48.805Z,8.13
2018-07-28T14:26:15.904Z,9.60
2018-07-28T14:28:42.967Z,6.80
2018-07-28T14:31:10.045Z,9.37
2018-07-28T14:33:37.241Z,7.75
2018-07-28T14:36:10.631Z,6.87
2018-07-28T14:38:37.757Z,8.20
2018-07-28T14:41:06.775Z,7.42
2018-07-28T14:43:33.919Z,7.03
2018-07-28T14:46:07.351Z,8.37
2018-07-28T14:48:41.626Z,6.73
2018-07-28T14:51:09.669Z,8.90
2018-07-28T14:53:36.808Z,10.00
2018-07-28T14:56:03.995Z,7.08
2018-07-28T14:58:33.135Z,6.33
2018-07-28T15:01:01.171Z,12.47
2018-07-28T15:03:28.333Z,6.20
2018-07-28T15:06:01.696Z,5.97
2018-07-28T15:08:29.896Z,7.10
2018-07-28T15:11:01.037Z,5.60
2018-07-28T15:13:29.140Z,6.20
2018-07-28T15:15:57.182Z,7.13
2018-07-28T15:18:41.186Z,6.10
2018-07-28T15:21:09.292Z,6.35
2018-07-28T15:23:36.410Z,5.90
2018-07-28T15:26:03.635Z,5.07
2018-07-28T15:28:31.149Z,5.10
2018-07-28T15:30:58.409Z,6.90
2018-07-28T15:33:26.515Z,8.05
2018-07-28T15:35:54.339Z,7.25
2018-07-28T15:38:22.368Z,5.53
2018-07-28T15:40:49.427Z,5.53
2018-07-28T15:43:17.607Z,5.67
2018-07-28T15:45:47.887Z,6.33
2018-07-28T15:48:16.031Z,6.67
2018-07-28T15:50:43.801Z,7.30
2018-07-28T15:53:10.978Z,16.57
2018-07-28T15:55:38.267Z,5.20
2018-07-28T15:58:05.495Z,5.57
2018-07-28T16:00:32.698Z,6.47
2018-07-28T16:02:59.844Z,6.00
2018-07-28T16:05:30.011Z,6.30
2018-07-28T16:10:27.328Z,8.00
2018-07-28T16:12:54.394Z,6.47
2018-07-28T16:15:21.884Z,5.10
2018-07-28T16:17:50.877Z,6.05
2018-07-28T16:20:17.937Z,5.70
2018-07-28T16:22:44.989Z,6.10
2018-07-28T16:25:12.303Z,5.17
2018-07-28T16:27:39.499Z,5.10
2018-07-28T16:30:07.907Z,5.53
2018-07-28T16:32:35.701Z,6.97
2018-07-28T16:35:07.059Z,5.10
2018-07-28T16:37:35.970Z,5.27
2018-07-28T16:40:03.280Z,4.93
2018-07-28T16:42:31.390Z,5.33
2018-07-28T16:45:00.516Z,7.30
2018-07-28T16:47:30.626Z,7.10
2018-07-28T16:49:57.728Z,5.70
2018-07-28T16:52:24.981Z,9.20
2018-07-28T16:54:52.407Z,7.53
2018-07-28T16:57:20.842Z,4.93
2018-07-28T16:59:47.952Z,6.23
2018-07-28T17:02:16.910Z,5.70
2018-07-28T17:04:44.994Z,5.80
2018-07-28T17:07:12.182Z,6.30
2018-07-28T17:09:42.283Z,6.00
2018-07-28T17:12:09.407Z,6.00
2018-07-28T17:14:36.547Z,5.80
2018-07-28T17:17:03.886Z,6.47
2018-07-28T17:19:31.193Z,5.83
2018-07-28T17:21:58.805Z,7.70
2018-07-28T17:24:29.868Z,8.13
2018-07-28T17:27:04.329Z,7.20
2018-07-28T17:29:35.514Z,5.73
2018-07-28T17:32:02.644Z,6.50
2018-07-28T17:34:29.827Z,13.40
2018-07-28T17:36:57.900Z,40.00
2018-07-28T17:39:25.917Z,98.43
2018-07-28T17:41:53.920Z,29.20
2018-07-28T17:44:24.131Z,74.75
2018-07-28T17:46:51.197Z,67.58
2018-07-28T17:49:18.310Z,64.00
2018-07-28T17:51:45.381Z,91.17
2018-07-28T17:54:13.414Z,109.13
2018-07-28T17:56:40.623Z,89.03
2018-07-28T17:59:08.666Z,116.57
2018-07-28T18:01:35.746Z,97.13
2018-07-28T18:04:03.014Z,44.42
2018-07-28T18:06:33.136Z,112.85
2018-07-28T18:09:04.903Z,39.73
2018-07-28T18:11:32.165Z,25.00
2018-07-28T18:13:59.234Z,69.87
2018-07-28T18:16:27.428Z,25.63
2018-07-28T18:18:55.483Z,7.33
2018-07-28T18:21:22.758Z,5.83
2018-07-28T18:23:49.992Z,6.43
2018-07-28T18:26:17.156Z,6.07
2018-07-28T18:28:50.401Z,5.63
2018-07-28T18:31:19.287Z,7.60
2018-07-28T18:33:46.540Z,6.00
2018-07-28T18:36:14.487Z,4.77
2018-07-28T18:38:41.701Z,5.50
2018-07-28T18:41:08.984Z,5.67
2018-07-28T18:43:40.316Z,5.20
2018-07-28T18:46:09.391Z,8.13
2018-07-28T18:48:37.424Z,6.57
2018-07-28T18:51:05.652Z,6.50
2018-07-28T18:53:32.910Z,9.00
2018-07-28T18:56:00.268Z,7.12
2018-07-28T18:58:27.399Z,5.57
2018-07-28T19:00:54.663Z,6.50
2018-07-28T19:03:21.765Z,5.57
2018-07-28T19:05:48.822Z,5.20
2018-07-28T19:08:15.948Z,6.07
2018-07-28T19:10:43.212Z,6.40
2018-07-28T19:13:16.515Z,6.00
2018-07-28T19:15:44.391Z,5.20
2018-07-28T19:18:17.182Z,6.30
2018-07-28T19:20:44.418Z,6.50
2018-07-28T19:23:17.103Z,5.73
2018-07-28T19:25:44.171Z,5.87
2018-07-28T19:28:17.060Z,5.27
2018-07-28T19:30:44.102Z,5.20
2018-07-28T19:33:11.241Z,6.73
2018-07-28T19:35:44.189Z,7.97
2018-07-28T19:38:11.244Z,6.47
2018-07-28T19:40:38.335Z,11.57
2018-07-28T19:43:05.388Z,9.60
2018-07-28T19:45:32.440Z,12.70
2018-07-28T19:47:59.621Z,9.67
2018-07-28T19:50:26.726Z,7.67
2018-07-28T19:52:53.892Z,10.13
2018-07-28T19:55:20.949Z,8.73
2018-07-28T19:57:48.093Z,9.93
2018-07-28T20:00:15.203Z,8.10
2018-07-28T20:02:42.447Z,6.83
2018-07-28T20:05:09.634Z,7.87
2018-07-28T20:07:37.802Z,9.27
2018-07-28T20:10:05.950Z,6.63
2018-07-28T20:12:33.009Z,11.30
2018-07-28T20:15:00.214Z,6.30
2018-07-28T20:17:27.284Z,8.00
2018-07-28T20:19:54.957Z,9.07
2018-07-28T20:22:22.021Z,10.50
2018-07-28T20:24:49.094Z,7.00
2018-07-28T20:27:16.288Z,8.83
2018-07-28T20:29:43.298Z,8.00
2018-07-28T20:32:10.409Z,8.67
2018-07-28T20:34:37.904Z,9.03
2018-07-28T20:37:05.083Z,7.00
2018-07-28T20:39:32.305Z,6.20
2018-07-28T20:42:00.281Z,8.63
2018-07-28T20:44:28.439Z,8.83
2018-07-28T20:46:55.669Z,8.03
2018-07-28T20:49:22.741Z,7.23
2018-07-28T20:51:49.903Z,8.80
2018-07-28T20:54:17.009Z,11.70
2018-07-28T20:56:44.014Z,7.70
2018-07-28T20:59:11.033Z,9.80
2018-07-28T21:01:38.017Z,6.77
2018-07-28T21:04:05.140Z,9.20
2018-07-28T21:06:32.148Z,8.87
2018-07-28T21:08:59.148Z,7.03
2018-07-28T21:11:26.118Z,8.73
2018-07-28T21:13:53.162Z,8.10
2018-07-28T21:16:20.226Z,7.22
2018-07-28T21:18:47.199Z,6.70
2018-07-28T21:21:14.177Z,7.03
2018-07-28T21:23:41.185Z,8.43
2018-07-28T21:26:08.220Z,8.17
2018-07-28T21:28:35.212Z,8.83
2018-07-28T21:31:02.192Z,8.20
2018-07-28T21:33:29.440Z,7.23
2018-07-28T21:35:56.451Z,7.80
2018-07-28T21:38:23.433Z,11.80
2018-07-28T21:40:50.438Z,8.33
2018-07-28T21:43:17.676Z,9.00
2018-07-28T21:45:44.680Z,6.47
2018-07-28T21:48:11.689Z,7.90
2018-07-28T21:50:38.725Z,8.03
2018-07-28T21:53:05.707Z,8.33
2018-07-28T21:55:32.841Z,8.20
2018-07-28T21:57:59.815Z,9.23
2018-07-28T22:00:30.017Z,7.10
2018-07-28T22:02:57.017Z,11.30
2018-07-28T22:05:24.026Z,7.97
2018-07-28T22:07:51.319Z,9.60
2018-07-28T22:10:18.319Z,9.57
2018-07-28T22:12:45.284Z,8.27
2018-07-28T22:15:12.261Z,6.80
2018-07-28T22:17:39.288Z,7.53
2018-07-28T22:20:06.277Z,9.00
2018-07-28T22:22:33.245Z,7.60
2018-07-28T22:25:00.223Z,8.93
2018-07-28T22:27:27.264Z,7.87
2018-07-28T22:29:54.232Z,7.93
2018-07-28T22:32:21.243Z,8.07
2018-07-28T22:34:48.236Z,7.77
2018-07-28T22:37:15.205Z,8.80
2018-07-28T22:39:42.197Z,8.83
2018-07-28T22:42:09.180Z,9.10
2018-07-28T22:44:36.172Z,9.77
2018-07-28T22:47:03.241Z,9.93
2018-07-28T22:49:30.244Z,9.97
2018-07-28T22:51:57.377Z,9.70
2018-07-28T22:54:24.425Z,9.63
2018-07-28T22:56:51.477Z,8.20
2018-07-28T22:59:18.449Z,7.93
2018-07-28T23:01:45.421Z,8.37
2018-07-28T23:04:12.408Z,8.73
2018-07-28T23:06:39.384Z,7.80
2018-07-28T23:09:07.990Z,14.83
2018-07-28T23:11:35.047Z,8.27
2018-07-28T23:14:02.164Z,10.30
2018-07-28T23:16:29.143Z,9.40
2018-07-28T23:18:56.118Z,11.37
2018-07-28T23:21:23.144Z,9.83
2018-07-28T23:23:50.118Z,11.73
2018-07-28T23:26:17.084Z,9.67
2018-07-28T23:28:44.076Z,9.43
2018-07-28T23:31:11.190Z,8.95
2018-07-28T23:33:38.168Z,9.80
2018-07-28T23:36:05.170Z,8.73
2018-07-28T23:38:32.169Z,9.60
2018-07-28T23:40:59.156Z,9.43
2018-07-28T23:43:26.153Z,11.80
2018-07-28T23:45:53.165Z,8.37
2018-07-28T23:48:23.457Z,10.20
2018-07-28T23:50:50.418Z,10.90
2018-07-28T23:53:17.756Z,10.17
2018-07-28T23:55:44.729Z,9.40
2018-07-28T23:58:11.701Z,9.33
